Townley, New Jersey
Current Conditions -  °F | °C
As of 3:51 AM on Wednesday 28 Jan 2015 (Local Time) from KEWR Reporting Station
Scattered Clouds Scattered Clouds  
Wind Chill:   Ceiling: Unl
Heat Index: 15°   Visibility: 10mi
Dew Point: -2°   Wind: 13mph
Humidity: 47%   Direction: 320°NW
Pressure: 29.93"   Gusts: 22mph
Location:  40.6941°N, 74.2694°W
Report Text: KEWR 280851Z 32011G19KT 10SM SCT140 M09/M19 A2993 RMK AO2 SLP135 T10941189 51019 $
Loading
Personal Weather Stations






























Interactive Weather Map New forecast layout! Learn more

10-Day Weather Forecast

Advertisements
Track Severe Weather on mobile